Lytten, Kentucky
Current Conditions -  °F | °C
As of 11:10 AM on Saturday 25 Oct 2014 (Local Time) from KSYM Reporting Station
Broken Clouds Broken Clouds  
Wind Chill: 57°   Ceiling: 8500
Heat Index: 57°   Visibility: 10mi
Dew Point: 48°   Wind: 10mph
Humidity: 72%   Direction: 200°SSW
Pressure: 30.06"   Gusts: NA
Location:  38.1397°N, 83.158°W
Report Text: KSYM 251510Z AUTO 20009KT 10SM SCT048 SCT060 BKN085 14/09 A3006 RMK AO2
Loading
Personal Weather Stations






























Interactive Weather Map
Tropical Storm Tracking
New forecast layout! Learn more

10-Day Weather Forecast

Advertisements
Track Severe Weather on mobile